createdAt,value
2022-09-06T00:01:15.008Z,23.30
2022-09-06T00:03:42.851Z,23.30
2022-09-06T00:06:12.446Z,23.30
2022-09-06T00:08:41.252Z,23.20
2022-09-06T00:11:09.460Z,23.20
2022-09-06T00:13:38.626Z,23.10
2022-09-06T00:16:11.156Z,23.20
2022-09-06T00:18:38.722Z,23.10
2022-09-06T00:21:16.132Z,23.30
2022-09-06T00:23:43.609Z,23.10
2022-09-06T00:26:11.284Z,23.10
2022-09-06T00:28:39.210Z,23.00
2022-09-06T00:31:22.646Z,23.00
2022-09-06T00:33:50.703Z,23.00
2022-09-06T00:36:18.559Z,23.00
2022-09-06T00:38:46.186Z,23.00
2022-09-06T00:41:15.445Z,22.90
2022-09-06T00:43:43.830Z,22.90
2022-09-06T00:46:16.923Z,23.10
2022-09-06T00:48:46.173Z,23.30
2022-09-06T00:51:15.359Z,23.30
2022-09-06T00:53:43.128Z,22.80
2022-09-06T00:56:10.935Z,23.20
2022-09-06T00:58:38.530Z,22.80
2022-09-06T01:01:07.960Z,23.20
2022-09-06T01:03:36.371Z,22.90
2022-09-06T01:06:15.805Z,22.90
2022-09-06T01:09:02.929Z,22.90
2022-09-06T01:11:41.586Z,23.00
2022-09-06T01:14:21.829Z,23.00
2022-09-06T01:17:18.160Z,23.00
2022-09-06T01:20:15.154Z,23.00
2022-09-06T01:22:59.617Z,23.10
2022-09-06T01:25:41.997Z,23.00
2022-09-06T01:28:30.160Z,23.00
2022-09-06T01:31:19.786Z,23.00
2022-09-06T01:34:06.092Z,23.10
2022-09-06T01:37:13.683Z,23.00
2022-09-06T01:39:42.155Z,23.10
2022-09-06T01:42:13.242Z,23.00
2022-09-06T01:44:45.561Z,23.10
2022-09-06T01:47:47.397Z,23.20
2022-09-06T01:50:33.537Z,23.20
2022-09-06T01:53:22.494Z,23.10
2022-09-06T01:56:12.517Z,23.10
2022-09-06T01:58:42.968Z,23.20
2022-09-06T02:01:37.524Z,23.20
2022-09-06T02:04:45.730Z,23.20
2022-09-06T02:07:23.601Z,23.20
2022-09-06T02:11:14.411Z,23.20
2022-09-06T02:14:11.042Z,22.90
2022-09-06T02:16:46.158Z,23.40
2022-09-06T02:19:42.169Z,23.50
2022-09-06T02:22:28.196Z,23.50
2022-09-06T02:25:02.804Z,23.60
2022-09-06T02:27:32.426Z,23.90
2022-09-06T02:30:06.755Z,23.70
2022-09-06T02:32:41.754Z,23.80
2022-09-06T02:36:05.804Z,23.80
2022-09-06T02:39:05.192Z,23.80
2022-09-06T02:41:34.045Z,23.90
2022-09-06T02:44:01.655Z,24.00
2022-09-06T02:46:29.046Z,24.00
2022-09-06T02:48:56.448Z,24.10
2022-09-06T02:51:23.933Z,24.10
2022-09-06T02:54:06.260Z,24.10
2022-09-06T02:56:39.641Z,24.20
2022-09-06T02:59:10.940Z,24.20
2022-09-06T03:01:41.890Z,24.30
2022-09-06T03:04:16.117Z,24.30
2022-09-06T03:07:01.951Z,24.30
2022-09-06T03:09:46.323Z,24.40
2022-09-06T03:12:15.532Z,24.40
2022-09-06T03:14:46.230Z,24.50
2022-09-06T03:17:18.916Z,24.50
2022-09-06T03:19:46.460Z,24.50
2022-09-06T03:22:13.813Z,24.50
2022-09-06T03:24:41.238Z,24.40
2022-09-06T03:27:08.766Z,24.50
2022-09-06T03:29:36.379Z,25.00
2022-09-06T03:32:04.042Z,24.50
2022-09-06T03:34:31.518Z,24.60
2022-09-06T03:36:59.071Z,24.50
2022-09-06T03:39:26.497Z,24.50
2022-09-06T03:41:53.908Z,24.40
2022-09-06T03:44:21.525Z,24.40
2022-09-06T03:46:49.661Z,24.40
2022-09-06T03:49:17.574Z,24.40
2022-09-06T03:51:45.239Z,24.40
2022-09-06T03:57:10.124Z,24.40
2022-09-06T03:59:37.974Z,24.40
2022-09-06T04:02:07.990Z,24.30
2022-09-06T04:05:02.205Z,24.30
2022-09-06T04:07:39.302Z,24.10
2022-09-06T04:10:07.737Z,24.10
2022-09-06T04:12:35.062Z,24.00
2022-09-06T04:15:02.473Z,24.10
2022-09-06T04:17:29.795Z,24.10
2022-09-06T04:19:57.062Z,24.20
2022-09-06T04:22:24.384Z,24.20
2022-09-06T04:24:51.745Z,24.20
2022-09-06T04:27:19.042Z,24.30
2022-09-06T04:29:46.424Z,24.30
2022-09-06T04:32:18.283Z,24.30
2022-09-06T04:34:57.480Z,24.20
2022-09-06T04:37:25.820Z,24.10
2022-09-06T04:40:14.753Z,24.40
2022-09-06T04:43:22.966Z,23.90
2022-09-06T04:46:39.418Z,23.80
2022-09-06T04:49:39.343Z,23.90
2022-09-06T04:52:16.328Z,23.70
2022-09-06T04:54:43.873Z,23.70
2022-09-06T04:57:11.353Z,23.70
2022-09-06T04:59:38.809Z,23.80
2022-09-06T05:02:06.243Z,23.80
2022-09-06T05:04:34.956Z,23.80
2022-09-06T05:07:08.567Z,23.80
2022-09-06T05:09:36.928Z,23.80
2022-09-06T05:16:00.763Z,23.80
2022-09-06T05:22:00.682Z,23.80
2022-09-06T05:24:28.694Z,23.80
2022-09-06T05:26:56.578Z,23.70
2022-09-06T05:30:04.016Z,24.00
2022-09-06T05:32:54.098Z,23.30
2022-09-06T05:35:53.651Z,23.70
2022-09-06T05:38:22.143Z,23.70
2022-09-06T05:40:52.982Z,23.70
2022-09-06T05:43:22.036Z,23.80
2022-09-06T05:45:59.867Z,23.80
2022-09-06T05:48:36.677Z,23.90
2022-09-06T05:51:04.571Z,23.90
2022-09-06T05:53:40.635Z,24.00
2022-09-06T05:56:08.770Z,24.00
2022-09-06T05:58:36.280Z,24.10
2022-09-06T06:01:06.326Z,24.40
2022-09-06T06:03:33.881Z,24.20
2022-09-06T06:06:01.603Z,24.30
2022-09-06T06:08:29.103Z,24.30
2022-09-06T06:11:00.357Z,24.40
2022-09-06T06:13:29.654Z,25.10
2022-09-06T06:15:57.009Z,24.60
2022-09-06T06:18:24.388Z,25.10
2022-09-06T06:20:51.920Z,24.60
2022-09-06T06:23:20.865Z,24.70
2022-09-06T06:25:48.549Z,25.20
2022-09-06T06:28:16.009Z,24.80
2022-09-06T06:30:43.349Z,24.80
2022-09-06T06:33:11.972Z,24.90
2022-09-06T06:35:40.197Z,24.90
2022-09-06T06:38:07.815Z,25.00
2022-09-06T06:40:35.372Z,25.00
2022-09-06T06:43:02.809Z,25.10
2022-09-06T06:45:31.590Z,25.00
2022-09-06T06:47:59.021Z,25.50
2022-09-06T06:54:32.877Z,25.10
2022-09-06T06:57:09.292Z,25.10
2022-09-06T06:59:36.740Z,25.40
2022-09-06T07:02:04.326Z,25.20
2022-09-06T07:04:32.248Z,25.20
2022-09-06T07:12:35.114Z,25.90
2022-09-06T07:15:03.361Z,25.60
2022-09-06T07:17:30.965Z,25.60
2022-09-06T07:20:14.498Z,25.60
2022-09-06T07:22:43.142Z,26.60
2022-09-06T07:25:16.489Z,26.20
2022-09-06T07:27:48.960Z,26.50
2022-09-06T07:30:19.931Z,26.80
2022-09-06T07:32:48.177Z,27.10
2022-09-06T07:35:17.565Z,27.40
2022-09-06T07:37:55.145Z,27.80
2022-09-06T07:40:27.171Z,28.10
2022-09-06T07:43:00.848Z,28.60
2022-09-06T07:46:05.111Z,28.90
2022-09-06T07:48:56.140Z,29.30
2022-09-06T07:51:23.599Z,29.90
2022-09-06T07:54:07.106Z,30.30
2022-09-06T07:56:41.192Z,30.70
2022-09-06T07:59:09.174Z,31.20
2022-09-06T08:01:39.068Z,31.60
2022-09-06T08:04:08.683Z,32.10
2022-09-06T08:09:27.280Z,33.00
2022-09-06T08:11:54.744Z,33.60
2022-09-06T08:14:22.117Z,34.00
2022-09-06T08:16:50.148Z,34.30
2022-09-06T08:19:18.363Z,34.60
2022-09-06T08:21:46.889Z,34.90
2022-09-06T08:24:14.185Z,35.20
2022-09-06T08:26:44.546Z,35.40
2022-09-06T08:29:13.107Z,35.60
2022-09-06T08:31:42.865Z,35.50
2022-09-06T08:34:14.233Z,35.60
2022-09-06T08:36:42.465Z,35.60
2022-09-06T08:39:11.515Z,35.70
2022-09-06T08:42:00.314Z,35.70
2022-09-06T08:47:22.389Z,35.40
2022-09-06T08:49:54.803Z,35.30
2022-09-06T08:52:22.269Z,35.20
2022-09-06T08:55:05.005Z,35.10
2022-09-06T08:57:44.434Z,35.00
2022-09-06T09:00:13.651Z,34.90
2022-09-06T09:02:47.369Z,34.80
2022-09-06T09:05:31.314Z,34.90
2022-09-06T09:08:20.150Z,34.80
2022-09-06T09:10:51.998Z,34.80
2022-09-06T09:13:32.377Z,34.80
2022-09-06T09:15:59.831Z,34.80
2022-09-06T09:18:34.757Z,34.90
2022-09-06T09:21:03.096Z,34.90
2022-09-06T09:23:33.664Z,35.10
2022-09-06T09:26:09.550Z,35.30
2022-09-06T09:28:37.175Z,35.40
2022-09-06T09:31:06.809Z,35.50
2022-09-06T09:33:41.205Z,35.70
2022-09-06T09:36:12.985Z,35.90
2022-09-06T09:38:45.744Z,35.90
2022-09-06T09:41:31.742Z,35.90
2022-09-06T09:44:04.624Z,36.00
2022-09-06T09:46:35.501Z,36.00
2022-09-06T09:49:12.808Z,35.90
2022-09-06T09:51:45.776Z,35.90
2022-09-06T09:54:29.301Z,35.90
2022-09-06T09:56:57.534Z,35.70
2022-09-06T09:59:29.263Z,35.60
2022-09-06T10:02:03.772Z,35.40
2022-09-06T10:04:45.773Z,35.50
2022-09-06T10:07:23.334Z,35.10
2022-09-06T10:10:01.055Z,35.00
2022-09-06T10:12:40.749Z,34.90
2022-09-06T10:15:31.240Z,34.80
2022-09-06T10:17:58.767Z,34.60
2022-09-06T10:20:42.186Z,34.50
2022-09-06T10:26:23.028Z,34.20
2022-09-06T10:28:55.706Z,34.10
2022-09-06T10:31:36.742Z,34.00
2022-09-06T10:34:16.697Z,34.00
2022-09-06T10:36:57.841Z,33.90
2022-09-06T10:39:48.185Z,33.80
2022-09-06T10:42:48.942Z,33.80
2022-09-06T10:45:36.070Z,33.70
2022-09-06T10:48:31.574Z,33.60
2022-09-06T10:51:04.747Z,33.60
2022-09-06T10:53:48.688Z,33.60
2022-09-06T10:56:22.434Z,33.50
2022-09-06T11:02:01.693Z,33.40
2022-09-06T11:07:31.002Z,33.40
2022-09-06T11:10:14.619Z,33.40
2022-09-06T11:12:58.948Z,33.30
2022-09-06T11:15:29.316Z,33.20
2022-09-06T11:18:15.538Z,33.20
2022-09-06T11:20:51.917Z,33.20
2022-09-06T11:23:22.155Z,33.10
2022-09-06T11:25:58.623Z,33.10
2022-09-06T11:28:46.053Z,33.00
2022-09-06T11:34:21.517Z,33.00
2022-09-06T11:36:51.749Z,33.00
2022-09-06T11:42:45.461Z,32.90
2022-09-06T11:45:23.173Z,32.80
2022-09-06T11:47:54.576Z,32.80
2022-09-06T11:50:21.919Z,32.80
2022-09-06T11:52:59.214Z,32.80
2022-09-06T11:55:50.563Z,32.70
2022-09-06T11:58:17.953Z,32.80
2022-09-06T12:00:47.110Z,32.80
2022-09-06T12:06:42.761Z,32.70
2022-09-06T12:09:28.024Z,32.60
2022-09-06T12:11:56.661Z,32.60
2022-09-06T12:14:46.554Z,32.90
2022-09-06T12:17:13.941Z,32.60
2022-09-06T12:19:47.401Z,32.60
2022-09-06T12:22:37.610Z,32.60
2022-09-06T12:25:07.878Z,32.60
2022-09-06T12:27:39.918Z,32.60
2022-09-06T12:30:12.813Z,32.60
2022-09-06T12:32:48.862Z,32.60
2022-09-06T12:38:17.003Z,32.60
2022-09-06T12:40:48.052Z,32.70
2022-09-06T12:43:17.421Z,32.60
2022-09-06T12:45:48.486Z,32.60
2022-09-06T12:48:44.391Z,32.70
2022-09-06T12:51:20.142Z,32.60
2022-09-06T12:53:59.373Z,32.70
2022-09-06T12:56:29.024Z,32.60
2022-09-06T12:59:21.064Z,32.60
2022-09-06T13:02:06.232Z,32.60
2022-09-06T13:04:42.672Z,32.60
2022-09-06T13:07:14.482Z,32.70
2022-09-06T13:09:46.822Z,32.70
2022-09-06T13:12:22.148Z,32.80
2022-09-06T13:14:54.131Z,32.70
2022-09-06T13:17:26.726Z,32.70
2022-09-06T13:19:55.320Z,32.60
2022-09-06T13:22:43.251Z,32.60
2022-09-06T13:25:20.886Z,32.60
2022-09-06T13:27:50.832Z,32.60
2022-09-06T13:30:35.360Z,32.70
2022-09-06T13:33:06.050Z,32.70
2022-09-06T13:35:36.696Z,32.70
2022-09-06T13:38:32.962Z,32.70
2022-09-06T13:41:16.885Z,32.70
2022-09-06T13:43:47.557Z,32.80
2022-09-06T13:46:14.979Z,32.80
2022-09-06T13:48:44.676Z,32.80
2022-09-06T13:51:12.715Z,32.80
2022-09-06T13:53:40.229Z,32.80
2022-09-06T13:56:08.411Z,32.80
2022-09-06T13:58:36.504Z,32.90
2022-09-06T14:01:08.671Z,32.90
2022-09-06T14:03:38.206Z,32.90
2022-09-06T14:06:05.729Z,33.40
2022-09-06T14:08:49.676Z,33.00
2022-09-06T14:11:21.253Z,33.00
2022-09-06T14:13:48.881Z,33.00
2022-09-06T14:16:17.631Z,33.00
2022-09-06T14:18:45.185Z,32.90
2022-09-06T14:21:12.745Z,32.90
2022-09-06T14:23:40.313Z,32.90
2022-09-06T14:26:07.651Z,33.00
2022-09-06T14:28:36.766Z,33.00
2022-09-06T14:31:25.174Z,33.00
2022-09-06T14:33:56.905Z,33.00
2022-09-06T14:36:26.825Z,33.00
2022-09-06T14:38:54.227Z,33.00
2022-09-06T14:41:21.677Z,33.00
2022-09-06T14:43:52.124Z,33.00
2022-09-06T14:46:21.896Z,33.10
2022-09-06T14:48:56.784Z,33.00
2022-09-06T14:51:24.248Z,33.00
2022-09-06T14:53:55.309Z,33.00
2022-09-06T14:56:23.468Z,33.00
2022-09-06T14:58:50.884Z,33.10
2022-09-06T15:01:21.541Z,33.10
2022-09-06T15:03:57.568Z,33.00
2022-09-06T15:06:26.790Z,33.10
2022-09-06T15:08:59.006Z,33.10
2022-09-06T15:11:34.115Z,33.10
2022-09-06T15:14:08.510Z,33.20
2022-09-06T15:16:36.094Z,33.10
2022-09-06T15:19:03.885Z,33.10
2022-09-06T15:21:32.188Z,33.10
2022-09-06T15:24:00.296Z,33.10
2022-09-06T15:26:28.221Z,33.10
2022-09-06T15:28:55.989Z,33.10
2022-09-06T15:31:23.401Z,33.10
2022-09-06T15:33:51.541Z,33.00
2022-09-06T15:36:19.058Z,33.00
2022-09-06T15:38:49.622Z,33.00
2022-09-06T15:41:24.245Z,33.00
2022-09-06T15:43:55.405Z,33.00
2022-09-06T15:46:45.686Z,33.00
2022-09-06T15:49:26.945Z,33.00
2022-09-06T15:51:58.115Z,33.00
2022-09-06T15:54:45.520Z,33.00
2022-09-06T15:57:14.768Z,33.00
2022-09-06T15:59:42.458Z,33.00
2022-09-06T16:02:10.071Z,33.00
2022-09-06T16:04:37.699Z,33.00
2022-09-06T16:07:05.666Z,33.00
2022-09-06T16:09:33.124Z,33.00
2022-09-06T16:12:00.470Z,33.00
2022-09-06T16:14:28.798Z,33.00
2022-09-06T16:16:57.403Z,33.00
2022-09-06T16:19:26.302Z,33.00
2022-09-06T16:21:54.219Z,32.90
2022-09-06T16:24:22.911Z,32.80
2022-09-06T16:26:50.757Z,32.80
2022-09-06T16:29:19.105Z,32.70
2022-09-06T16:31:47.297Z,32.70
2022-09-06T16:34:16.782Z,32.60
2022-09-06T16:36:44.204Z,32.60
2022-09-06T16:39:11.737Z,32.60
2022-09-06T16:41:42.437Z,32.50
2022-09-06T16:44:16.092Z,32.40
2022-09-06T16:46:48.429Z,32.40
2022-09-06T16:49:17.474Z,32.30
2022-09-06T16:51:46.900Z,32.20
2022-09-06T16:54:16.419Z,32.00
2022-09-06T16:56:47.418Z,31.90
2022-09-06T16:59:21.597Z,31.80
2022-09-06T17:02:03.653Z,31.70
2022-09-06T17:04:38.620Z,31.60
2022-09-06T17:07:16.807Z,31.50
2022-09-06T17:09:46.620Z,31.30
2022-09-06T17:12:14.262Z,31.30
2022-09-06T17:14:41.702Z,31.10
2022-09-06T17:17:09.926Z,30.90
2022-09-06T17:19:41.389Z,30.70
2022-09-06T17:22:10.849Z,30.60
2022-09-06T17:24:39.403Z,30.40
2022-09-06T17:27:07.453Z,30.20
2022-09-06T17:29:35.387Z,30.00
2022-09-06T17:32:05.172Z,29.90
2022-09-06T17:34:32.530Z,29.70
2022-09-06T17:36:59.858Z,29.50
2022-09-06T17:39:27.357Z,29.40
2022-09-06T17:41:55.225Z,29.30
2022-09-06T17:44:25.823Z,29.10
2022-09-06T17:47:11.893Z,28.90
2022-09-06T17:49:40.393Z,28.80
2022-09-06T17:52:07.816Z,28.60
2022-09-06T17:54:35.197Z,28.40
2022-09-06T17:57:02.509Z,28.30
2022-09-06T17:59:35.152Z,28.10
2022-09-06T18:02:04.411Z,28.10
2022-09-06T18:04:32.537Z,27.90
2022-09-06T18:07:00.288Z,27.80
2022-09-06T18:09:28.286Z,28.10
2022-09-06T18:11:55.901Z,27.50
2022-09-06T18:14:23.364Z,27.40
2022-09-06T18:16:52.159Z,27.30
2022-09-06T18:19:19.797Z,27.10
2022-09-06T18:21:48.919Z,27.00
2022-09-06T18:24:16.969Z,27.30
2022-09-06T18:26:44.739Z,26.80
2022-09-06T18:29:14.630Z,26.70
2022-09-06T18:31:42.754Z,26.60
2022-09-06T18:34:10.692Z,26.60
2022-09-06T18:36:39.012Z,26.60
2022-09-06T18:39:06.964Z,26.50
2022-09-06T18:41:53.323Z,26.50
2022-09-06T18:44:21.508Z,26.40
2022-09-06T18:46:49.721Z,26.30
2022-09-06T18:49:18.361Z,26.30
2022-09-06T18:51:45.928Z,26.20
2022-09-06T18:54:14.348Z,26.10
2022-09-06T18:56:44.644Z,26.10
2022-09-06T18:59:13.682Z,26.10
2022-09-06T19:01:42.951Z,26.00
2022-09-06T19:04:11.361Z,26.00
2022-09-06T19:06:41.175Z,26.00
2022-09-06T19:09:11.906Z,26.00
2022-09-06T19:11:41.517Z,26.00
2022-09-06T19:14:09.504Z,25.40
2022-09-06T19:16:37.423Z,25.90
2022-09-06T19:19:06.975Z,25.80
2022-09-06T19:21:37.938Z,25.80
2022-09-06T19:24:11.515Z,25.80
2022-09-06T19:26:44.400Z,25.70
2022-09-06T19:29:14.959Z,25.70
2022-09-06T19:31:43.920Z,25.70
2022-09-06T19:34:15.217Z,25.60
2022-09-06T19:36:44.588Z,25.60
2022-09-06T19:39:14.740Z,25.50
2022-09-06T19:41:46.653Z,25.50
2022-09-06T19:44:18.442Z,25.40
2022-09-06T19:46:47.280Z,25.40
2022-09-06T19:49:16.833Z,25.40
2022-09-06T19:51:46.223Z,25.30
2022-09-06T19:54:15.389Z,25.30
2022-09-06T19:56:44.498Z,25.20
2022-09-06T19:59:13.395Z,25.20
2022-09-06T20:01:43.150Z,25.20
2022-09-06T20:04:12.880Z,25.10
2022-09-06T20:06:40.505Z,25.10
2022-09-06T20:09:09.982Z,25.10
2022-09-06T20:11:38.665Z,25.00
2022-09-06T20:14:06.064Z,25.00
2022-09-06T20:16:36.037Z,24.90
2022-09-06T20:19:05.593Z,24.90
2022-09-06T20:21:33.066Z,24.90
2022-09-06T20:24:00.943Z,24.90
2022-09-06T20:26:30.368Z,24.80
2022-09-06T20:29:02.936Z,24.70
2022-09-06T20:31:31.473Z,24.70
2022-09-06T20:34:00.763Z,24.70
2022-09-06T20:36:28.775Z,24.60
2022-09-06T20:38:56.490Z,24.60
2022-09-06T20:41:26.565Z,24.60
2022-09-06T20:43:58.981Z,24.50
2022-09-06T20:46:29.569Z,24.40
2022-09-06T20:48:59.646Z,24.40
2022-09-06T20:51:27.178Z,24.40
2022-09-06T20:53:57.020Z,24.30
2022-09-06T20:56:44.519Z,24.30
2022-09-06T20:59:13.613Z,24.30
2022-09-06T21:01:43.641Z,24.30
2022-09-06T21:04:12.985Z,24.20
2022-09-06T21:06:40.454Z,24.10
2022-09-06T21:09:10.442Z,24.10
2022-09-06T21:11:38.746Z,24.10
2022-09-06T21:14:07.580Z,24.00
2022-09-06T21:16:35.181Z,24.00
2022-09-06T21:19:06.780Z,24.00
2022-09-06T21:21:34.958Z,23.90
2022-09-06T21:24:04.087Z,23.90
2022-09-06T21:26:32.056Z,23.80
2022-09-06T21:28:59.876Z,23.70
2022-09-06T21:31:32.630Z,23.70
2022-09-06T21:34:04.896Z,23.60
2022-09-06T21:36:35.695Z,23.60
2022-09-06T21:39:05.799Z,23.60
2022-09-06T21:41:36.620Z,23.60
2022-09-06T21:44:05.487Z,23.50
2022-09-06T21:46:35.763Z,23.50
2022-09-06T21:49:07.123Z,23.50
2022-09-06T21:51:35.417Z,23.50
2022-09-06T21:54:04.643Z,23.40
2022-09-06T21:56:34.360Z,23.30
2022-09-06T21:59:02.159Z,23.30
2022-09-06T22:01:32.116Z,23.30
2022-09-06T22:04:00.432Z,23.30
2022-09-06T22:06:30.282Z,23.20
2022-09-06T22:09:00.132Z,23.20
2022-09-06T22:11:30.621Z,23.20
2022-09-06T22:13:59.908Z,23.20
2022-09-06T22:16:28.479Z,23.20
2022-09-06T22:18:56.005Z,23.10
2022-09-06T22:21:24.625Z,23.10
2022-09-06T22:23:54.417Z,23.20
2022-09-06T22:26:26.102Z,23.20
2022-09-06T22:28:58.510Z,23.20
2022-09-06T22:31:27.857Z,23.10
2022-09-06T22:33:55.778Z,23.10
2022-09-06T22:36:24.142Z,23.10
2022-09-06T22:40:07.331Z,23.10
2022-09-06T22:42:34.871Z,23.00
2022-09-06T22:45:02.994Z,23.10
2022-09-06T22:47:31.673Z,23.00
2022-09-06T22:49:59.349Z,23.00
2022-09-06T22:52:26.694Z,23.00
2022-09-06T22:54:54.109Z,23.00
2022-09-06T22:57:21.584Z,23.00
2022-09-06T22:59:49.004Z,23.00
2022-09-06T23:02:16.370Z,23.00
2022-09-06T23:04:44.206Z,22.90
2022-09-06T23:07:11.695Z,22.90
2022-09-06T23:09:39.122Z,22.90
2022-09-06T23:12:06.643Z,22.90
2022-09-06T23:14:34.038Z,22.90
2022-09-06T23:17:01.518Z,22.90
2022-09-06T23:19:28.869Z,22.80
2022-09-06T23:21:56.262Z,22.80
2022-09-06T23:24:24.115Z,22.80
2022-09-06T23:26:52.613Z,22.80
2022-09-06T23:29:20.043Z,22.80
2022-09-06T23:31:47.502Z,22.80
2022-09-06T23:34:15.345Z,22.80
2022-09-06T23:36:42.829Z,22.80
2022-09-06T23:39:10.299Z,22.70
2022-09-06T23:41:37.778Z,22.70
2022-09-06T23:44:05.231Z,22.60
2022-09-06T23:46:33.054Z,22.60
2022-09-06T23:49:00.675Z,23.00
2022-09-06T23:51:28.332Z,22.60
2022-09-06T23:53:55.761Z,22.60
2022-09-06T23:56:23.147Z,22.50
2022-09-06T23:58:50.628Z,22.60
